sensor_id;sensor_type;location;lat;lon;timestamp;P1;durP1;ratioP1;P2;durP2;ratioP2
64615;SDS011;51027;42.162;24.754;2023-04-24T00:02:00;19.63;;;8.02;;
64615;SDS011;51027;42.162;24.754;2023-04-24T00:04:26;19.08;;;8.05;;
64615;SDS011;51027;42.162;24.754;2023-04-24T00:06:51;19.65;;;8.10;;
64615;SDS011;51027;42.162;24.754;2023-04-24T00:09:22;16.48;;;7.63;;
64615;SDS011;51027;42.162;24.754;2023-04-24T00:11:47;18.75;;;8.23;;
64615;SDS011;51027;42.162;24.754;2023-04-24T00:14:13;17.13;;;8.18;;
64615;SDS011;51027;42.162;24.754;2023-04-24T00:16:38;17.80;;;7.65;;
64615;SDS011;51027;42.162;24.754;2023-04-24T00:19:03;17.73;;;8.05;;
64615;SDS011;51027;42.162;24.754;2023-04-24T00:21:30;18.00;;;7.78;;
64615;SDS011;51027;42.162;24.754;2023-04-24T00:23:57;19.67;;;8.45;;
64615;SDS011;51027;42.162;24.754;2023-04-24T00:26:23;19.33;;;8.38;;
64615;SDS011;51027;42.162;24.754;2023-04-24T00:28:48;18.67;;;7.82;;
64615;SDS011;51027;42.162;24.754;2023-04-24T00:31:14;17.23;;;7.38;;
64615;SDS011;51027;42.162;24.754;2023-04-24T00:33:39;18.63;;;8.35;;
64615;SDS011;51027;42.162;24.754;2023-04-24T00:36:05;19.13;;;7.97;;
64615;SDS011;51027;42.162;24.754;2023-04-24T00:38:31;20.30;;;8.23;;
64615;SDS011;51027;42.162;24.754;2023-04-24T00:40:56;19.25;;;7.88;;
64615;SDS011;51027;42.162;24.754;2023-04-24T00:43:22;18.38;;;8.10;;
64615;SDS011;51027;42.162;24.754;2023-04-24T00:45:47;17.83;;;8.43;;
64615;SDS011;51027;42.162;24.754;2023-04-24T00:48:13;20.05;;;8.45;;
64615;SDS011;51027;42.162;24.754;2023-04-24T00:50:39;19.05;;;8.70;;
64615;SDS011;51027;42.162;24.754;2023-04-24T00:53:05;20.48;;;8.30;;
64615;SDS011;51027;42.162;24.754;2023-04-24T00:55:31;18.33;;;9.23;;
64615;SDS011;51027;42.162;24.754;2023-04-24T00:57:57;19.75;;;8.45;;
64615;SDS011;51027;42.162;24.754;2023-04-24T01:00:23;16.63;;;7.90;;
64615;SDS011;51027;42.162;24.754;2023-04-24T01:02:49;20.55;;;8.80;;
64615;SDS011;51027;42.162;24.754;2023-04-24T01:05:16;19.27;;;8.00;;
64615;SDS011;51027;42.162;24.754;2023-04-24T01:07:43;19.70;;;7.93;;
64615;SDS011;51027;42.162;24.754;2023-04-24T01:10:11;19.88;;;9.10;;
64615;SDS011;51027;42.162;24.754;2023-04-24T01:12:37;21.33;;;8.98;;
64615;SDS011;51027;42.162;24.754;2023-04-24T01:15:03;18.15;;;8.02;;
64615;SDS011;51027;42.162;24.754;2023-04-24T01:17:31;19.67;;;8.38;;
64615;SDS011;51027;42.162;24.754;2023-04-24T01:19:57;21.23;;;8.70;;
64615;SDS011;51027;42.162;24.754;2023-04-24T01:22:23;19.50;;;8.52;;
64615;SDS011;51027;42.162;24.754;2023-04-24T01:24:49;19.80;;;8.90;;
64615;SDS011;51027;42.162;24.754;2023-04-24T01:27:14;19.65;;;9.32;;
64615;SDS011;51027;42.162;24.754;2023-04-24T01:29:40;19.63;;;8.95;;
64615;SDS011;51027;42.162;24.754;2023-04-24T01:32:06;19.55;;;8.20;;
64615;SDS011;51027;42.162;24.754;2023-04-24T01:34:32;18.15;;;8.20;;
64615;SDS011;51027;42.162;24.754;2023-04-24T01:36:59;18.83;;;8.25;;
64615;SDS011;51027;42.162;24.754;2023-04-24T01:39:24;22.17;;;9.35;;
64615;SDS011;51027;42.162;24.754;2023-04-24T01:41:53;19.80;;;8.90;;
64615;SDS011;51027;42.162;24.754;2023-04-24T01:44:19;18.60;;;8.90;;
64615;SDS011;51027;42.162;24.754;2023-04-24T01:46:44;19.67;;;9.23;;
64615;SDS011;51027;42.162;24.754;2023-04-24T01:49:10;19.02;;;8.35;;
64615;SDS011;51027;42.162;24.754;2023-04-24T01:51:36;17.80;;;8.52;;
64615;SDS011;51027;42.162;24.754;2023-04-24T01:54:02;20.42;;;9.35;;
64615;SDS011;51027;42.162;24.754;2023-04-24T01:56:28;20.20;;;9.05;;
64615;SDS011;51027;42.162;24.754;2023-04-24T01:58:55;21.17;;;9.80;;
64615;SDS011;51027;42.162;24.754;2023-04-24T02:01:23;20.85;;;8.43;;
64615;SDS011;51027;42.162;24.754;2023-04-24T02:03:49;18.52;;;8.77;;
64615;SDS011;51027;42.162;24.754;2023-04-24T02:06:14;18.70;;;8.38;;
64615;SDS011;51027;42.162;24.754;2023-04-24T02:08:40;20.77;;;8.98;;
64615;SDS011;51027;42.162;24.754;2023-04-24T02:11:05;22.67;;;9.55;;
64615;SDS011;51027;42.162;24.754;2023-04-24T02:13:31;20.33;;;8.45;;
64615;SDS011;51027;42.162;24.754;2023-04-24T02:15:57;18.17;;;8.15;;
64615;SDS011;51027;42.162;24.754;2023-04-24T02:18:23;19.75;;;9.07;;
64615;SDS011;51027;42.162;24.754;2023-04-24T02:20:48;21.05;;;9.57;;
64615;SDS011;51027;42.162;24.754;2023-04-24T02:23:14;19.92;;;9.00;;
64615;SDS011;51027;42.162;24.754;2023-04-24T02:25:40;17.40;;;8.27;;
64615;SDS011;51027;42.162;24.754;2023-04-24T02:28:05;20.88;;;8.75;;
64615;SDS011;51027;42.162;24.754;2023-04-24T02:30:31;21.95;;;9.00;;
64615;SDS011;51027;42.162;24.754;2023-04-24T02:32:56;20.27;;;9.25;;
64615;SDS011;51027;42.162;24.754;2023-04-24T02:35:22;22.92;;;8.52;;
64615;SDS011;51027;42.162;24.754;2023-04-24T02:37:47;18.65;;;8.85;;
64615;SDS011;51027;42.162;24.754;2023-04-24T02:40:13;21.05;;;9.18;;
64615;SDS011;51027;42.162;24.754;2023-04-24T02:42:38;20.27;;;8.73;;
64615;SDS011;51027;42.162;24.754;2023-04-24T02:45:04;20.42;;;8.70;;
64615;SDS011;51027;42.162;24.754;2023-04-24T02:47:30;21.75;;;9.15;;
64615;SDS011;51027;42.162;24.754;2023-04-24T02:49:55;19.20;;;8.32;;
64615;SDS011;51027;42.162;24.754;2023-04-24T02:52:21;19.67;;;8.90;;
64615;SDS011;51027;42.162;24.754;2023-04-24T02:54:46;20.40;;;8.27;;
64615;SDS011;51027;42.162;24.754;2023-04-24T02:57:11;12.85;;;6.65;;
64615;SDS011;51027;42.162;24.754;2023-04-24T02:59:37;19.20;;;8.88;;
64615;SDS011;51027;42.162;24.754;2023-04-24T03:02:02;20.67;;;9.43;;
64615;SDS011;51027;42.162;24.754;2023-04-24T03:04:28;21.02;;;9.45;;
64615;SDS011;51027;42.162;24.754;2023-04-24T03:06:53;20.95;;;8.88;;
64615;SDS011;51027;42.162;24.754;2023-04-24T03:09:20;19.58;;;8.55;;
64615;SDS011;51027;42.162;24.754;2023-04-24T03:11:46;22.75;;;8.63;;
64615;SDS011;51027;42.162;24.754;2023-04-24T03:14:11;23.30;;;10.13;;
64615;SDS011;51027;42.162;24.754;2023-04-24T03:16:36;20.10;;;8.48;;
64615;SDS011;51027;42.162;24.754;2023-04-24T03:19:02;20.42;;;9.70;;
64615;SDS011;51027;42.162;24.754;2023-04-24T03:21:27;24.05;;;8.98;;
64615;SDS011;51027;42.162;24.754;2023-04-24T03:23:53;22.92;;;9.60;;
64615;SDS011;51027;42.162;24.754;2023-04-24T03:26:18;22.88;;;9.13;;
64615;SDS011;51027;42.162;24.754;2023-04-24T03:28:44;18.20;;;8.63;;
64615;SDS011;51027;42.162;24.754;2023-04-24T03:31:10;22.02;;;9.07;;
64615;SDS011;51027;42.162;24.754;2023-04-24T03:33:35;21.33;;;9.23;;
64615;SDS011;51027;42.162;24.754;2023-04-24T03:36:01;20.90;;;8.95;;
64615;SDS011;51027;42.162;24.754;2023-04-24T03:38:26;20.42;;;9.50;;
64615;SDS011;51027;42.162;24.754;2023-04-24T03:40:51;21.35;;;9.27;;
64615;SDS011;51027;42.162;24.754;2023-04-24T03:43:17;20.33;;;8.90;;
64615;SDS011;51027;42.162;24.754;2023-04-24T03:45:42;20.55;;;9.20;;
64615;SDS011;51027;42.162;24.754;2023-04-24T03:48:08;22.85;;;9.13;;
64615;SDS011;51027;42.162;24.754;2023-04-24T03:50:33;19.20;;;8.93;;
64615;SDS011;51027;42.162;24.754;2023-04-24T03:52:58;23.80;;;9.95;;
64615;SDS011;51027;42.162;24.754;2023-04-24T03:55:24;20.52;;;9.15;;
64615;SDS011;51027;42.162;24.754;2023-04-24T03:57:49;19.90;;;8.85;;
64615;SDS011;51027;42.162;24.754;2023-04-24T04:00:15;18.67;;;8.25;;
64615;SDS011;51027;42.162;24.754;2023-04-24T04:02:40;20.65;;;9.23;;
64615;SDS011;51027;42.162;24.754;2023-04-24T04:05:06;20.15;;;9.48;;
64615;SDS011;51027;42.162;24.754;2023-04-24T04:07:33;19.35;;;8.45;;
64615;SDS011;51027;42.162;24.754;2023-04-24T04:09:58;21.52;;;10.45;;
64615;SDS011;51027;42.162;24.754;2023-04-24T04:12:24;25.25;;;11.00;;
64615;SDS011;51027;42.162;24.754;2023-04-24T04:14:49;26.45;;;10.40;;
64615;SDS011;51027;42.162;24.754;2023-04-24T04:17:14;23.35;;;11.00;;
64615;SDS011;51027;42.162;24.754;2023-04-24T04:19:40;28.23;;;11.85;;
64615;SDS011;51027;42.162;24.754;2023-04-24T04:22:05;26.58;;;12.13;;
64615;SDS011;51027;42.162;24.754;2023-04-24T04:24:33;26.10;;;13.30;;
64615;SDS011;51027;42.162;24.754;2023-04-24T04:26:58;24.83;;;13.68;;
64615;SDS011;51027;42.162;24.754;2023-04-24T04:29:25;22.58;;;11.60;;
64615;SDS011;51027;42.162;24.754;2023-04-24T04:31:51;25.98;;;11.38;;
64615;SDS011;51027;42.162;24.754;2023-04-24T04:34:17;23.35;;;12.00;;
64615;SDS011;51027;42.162;24.754;2023-04-24T04:36:43;20.63;;;9.93;;
64615;SDS011;51027;42.162;24.754;2023-04-24T04:39:11;21.58;;;10.30;;
64615;SDS011;51027;42.162;24.754;2023-04-24T04:41:39;20.98;;;11.48;;
64615;SDS011;51027;42.162;24.754;2023-04-24T04:44:05;23.55;;;10.43;;
64615;SDS011;51027;42.162;24.754;2023-04-24T04:46:31;25.88;;;12.43;;
64615;SDS011;51027;42.162;24.754;2023-04-24T04:49:02;22.65;;;10.40;;
64615;SDS011;51027;42.162;24.754;2023-04-24T04:51:27;21.52;;;10.00;;
64615;SDS011;51027;42.162;24.754;2023-04-24T04:53:53;24.25;;;10.45;;
64615;SDS011;51027;42.162;24.754;2023-04-24T04:56:19;21.35;;;9.98;;
64615;SDS011;51027;42.162;24.754;2023-04-24T04:58:44;23.55;;;10.98;;
64615;SDS011;51027;42.162;24.754;2023-04-24T05:01:09;23.42;;;10.15;;
64615;SDS011;51027;42.162;24.754;2023-04-24T05:03:35;25.38;;;10.95;;
64615;SDS011;51027;42.162;24.754;2023-04-24T05:06:01;22.45;;;10.23;;
64615;SDS011;51027;42.162;24.754;2023-04-24T05:08:27;23.17;;;10.40;;
64615;SDS011;51027;42.162;24.754;2023-04-24T05:10:52;23.17;;;9.85;;
64615;SDS011;51027;42.162;24.754;2023-04-24T05:13:19;18.63;;;8.68;;
64615;SDS011;51027;42.162;24.754;2023-04-24T05:15:45;23.83;;;8.98;;
64615;SDS011;51027;42.162;24.754;2023-04-24T05:18:10;23.25;;;9.93;;
64615;SDS011;51027;42.162;24.754;2023-04-24T05:20:36;16.20;;;7.70;;
64615;SDS011;51027;42.162;24.754;2023-04-24T05:23:01;21.85;;;9.00;;
64615;SDS011;51027;42.162;24.754;2023-04-24T05:25:26;19.88;;;9.00;;
64615;SDS011;51027;42.162;24.754;2023-04-24T05:27:52;20.45;;;8.63;;
64615;SDS011;51027;42.162;24.754;2023-04-24T05:30:18;19.92;;;8.90;;
64615;SDS011;51027;42.162;24.754;2023-04-24T05:32:44;19.65;;;8.00;;
64615;SDS011;51027;42.162;24.754;2023-04-24T05:35:10;20.83;;;8.40;;
64615;SDS011;51027;42.162;24.754;2023-04-24T05:37:35;21.67;;;9.15;;
64615;SDS011;51027;42.162;24.754;2023-04-24T05:40:00;20.45;;;8.88;;
64615;SDS011;51027;42.162;24.754;2023-04-24T05:42:26;18.88;;;8.35;;
64615;SDS011;51027;42.162;24.754;2023-04-24T05:44:51;21.65;;;9.20;;
64615;SDS011;51027;42.162;24.754;2023-04-24T05:47:19;21.90;;;10.00;;
64615;SDS011;51027;42.162;24.754;2023-04-24T05:49:44;19.67;;;8.77;;
64615;SDS011;51027;42.162;24.754;2023-04-24T05:52:09;22.10;;;8.60;;
64615;SDS011;51027;42.162;24.754;2023-04-24T05:54:35;21.95;;;8.50;;
64615;SDS011;51027;42.162;24.754;2023-04-24T05:57:00;21.27;;;8.00;;
64615;SDS011;51027;42.162;24.754;2023-04-24T05:59:29;19.73;;;7.53;;
64615;SDS011;51027;42.162;24.754;2023-04-24T06:01:54;18.02;;;8.57;;
64615;SDS011;51027;42.162;24.754;2023-04-24T06:04:20;18.50;;;8.52;;
64615;SDS011;51027;42.162;24.754;2023-04-24T06:06:46;18.80;;;8.40;;
64615;SDS011;51027;42.162;24.754;2023-04-24T06:09:11;22.30;;;9.52;;
64615;SDS011;51027;42.162;24.754;2023-04-24T06:11:37;19.70;;;9.43;;
64615;SDS011;51027;42.162;24.754;2023-04-24T06:14:02;19.33;;;9.10;;
64615;SDS011;51027;42.162;24.754;2023-04-24T06:16:28;20.42;;;8.68;;
64615;SDS011;51027;42.162;24.754;2023-04-24T06:18:55;19.08;;;8.27;;
64615;SDS011;51027;42.162;24.754;2023-04-24T06:21:20;19.08;;;7.68;;
64615;SDS011;51027;42.162;24.754;2023-04-24T06:23:46;19.95;;;8.30;;
64615;SDS011;51027;42.162;24.754;2023-04-24T06:26:12;17.77;;;8.38;;
64615;SDS011;51027;42.162;24.754;2023-04-24T06:28:37;23.30;;;8.70;;
64615;SDS011;51027;42.162;24.754;2023-04-24T06:31:03;17.90;;;7.55;;
64615;SDS011;51027;42.162;24.754;2023-04-24T06:33:28;18.48;;;7.60;;
64615;SDS011;51027;42.162;24.754;2023-04-24T06:35:53;18.73;;;7.50;;
64615;SDS011;51027;42.162;24.754;2023-04-24T06:38:19;19.67;;;8.10;;
64615;SDS011;51027;42.162;24.754;2023-04-24T06:40:45;19.85;;;8.25;;
64615;SDS011;51027;42.162;24.754;2023-04-24T06:43:10;18.55;;;7.82;;
64615;SDS011;51027;42.162;24.754;2023-04-24T06:45:36;22.98;;;8.65;;
64615;SDS011;51027;42.162;24.754;2023-04-24T06:48:01;21.08;;;8.05;;
64615;SDS011;51027;42.162;24.754;2023-04-24T06:50:26;20.58;;;8.30;;
64615;SDS011;51027;42.162;24.754;2023-04-24T06:52:52;22.60;;;7.85;;
64615;SDS011;51027;42.162;24.754;2023-04-24T06:55:17;19.50;;;7.78;;
64615;SDS011;51027;42.162;24.754;2023-04-24T06:57:43;17.13;;;7.95;;
64615;SDS011;51027;42.162;24.754;2023-04-24T07:00:09;19.38;;;7.45;;
64615;SDS011;51027;42.162;24.754;2023-04-24T07:02:35;18.75;;;7.45;;
64615;SDS011;51027;42.162;24.754;2023-04-24T07:05:00;17.02;;;7.15;;
64615;SDS011;51027;42.162;24.754;2023-04-24T07:07:26;19.45;;;7.70;;
64615;SDS011;51027;42.162;24.754;2023-04-24T07:09:52;18.67;;;7.45;;
64615;SDS011;51027;42.162;24.754;2023-04-24T07:12:19;19.25;;;7.78;;
64615;SDS011;51027;42.162;24.754;2023-04-24T07:14:46;18.08;;;7.60;;
64615;SDS011;51027;42.162;24.754;2023-04-24T07:17:12;16.92;;;6.80;;
64615;SDS011;51027;42.162;24.754;2023-04-24T07:19:38;20.95;;;7.65;;
64615;SDS011;51027;42.162;24.754;2023-04-24T07:22:03;19.65;;;8.20;;
64615;SDS011;51027;42.162;24.754;2023-04-24T07:24:29;20.58;;;8.98;;
64615;SDS011;51027;42.162;24.754;2023-04-24T07:26:57;16.92;;;6.57;;
64615;SDS011;51027;42.162;24.754;2023-04-24T07:29:22;19.35;;;7.07;;
64615;SDS011;51027;42.162;24.754;2023-04-24T07:31:47;20.08;;;7.68;;
64615;SDS011;51027;42.162;24.754;2023-04-24T07:34:13;18.80;;;6.80;;
64615;SDS011;51027;42.162;24.754;2023-04-24T07:36:38;16.63;;;6.53;;
64615;SDS011;51027;42.162;24.754;2023-04-24T07:39:05;17.15;;;6.55;;
64615;SDS011;51027;42.162;24.754;2023-04-24T07:41:31;17.77;;;7.22;;
64615;SDS011;51027;42.162;24.754;2023-04-24T07:43:56;15.82;;;7.03;;
64615;SDS011;51027;42.162;24.754;2023-04-24T07:46:22;19.80;;;8.65;;
64615;SDS011;51027;42.162;24.754;2023-04-24T07:48:48;21.17;;;7.55;;
64615;SDS011;51027;42.162;24.754;2023-04-24T07:51:14;17.75;;;7.47;;
64615;SDS011;51027;42.162;24.754;2023-04-24T07:53:40;20.63;;;7.93;;
64615;SDS011;51027;42.162;24.754;2023-04-24T07:56:06;17.50;;;6.70;;
64615;SDS011;51027;42.162;24.754;2023-04-24T07:58:32;15.45;;;6.97;;
64615;SDS011;51027;42.162;24.754;2023-04-24T08:00:57;19.15;;;7.93;;
64615;SDS011;51027;42.162;24.754;2023-04-24T08:03:22;24.35;;;7.82;;
64615;SDS011;51027;42.162;24.754;2023-04-24T08:05:49;19.52;;;8.23;;
64615;SDS011;51027;42.162;24.754;2023-04-24T08:08:15;19.85;;;8.68;;
64615;SDS011;51027;42.162;24.754;2023-04-24T08:10:41;17.50;;;7.78;;
64615;SDS011;51027;42.162;24.754;2023-04-24T08:13:07;26.15;;;9.73;;
64615;SDS011;51027;42.162;24.754;2023-04-24T08:15:32;18.30;;;7.70;;
64615;SDS011;51027;42.162;24.754;2023-04-24T08:17:58;17.20;;;7.55;;
64615;SDS011;51027;42.162;24.754;2023-04-24T08:20:23;16.73;;;7.47;;
64615;SDS011;51027;42.162;24.754;2023-04-24T08:22:49;20.10;;;8.35;;
64615;SDS011;51027;42.162;24.754;2023-04-24T08:25:14;19.45;;;8.65;;
64615;SDS011;51027;42.162;24.754;2023-04-24T08:27:40;20.42;;;8.50;;
64615;SDS011;51027;42.162;24.754;2023-04-24T08:30:06;24.73;;;9.57;;
64615;SDS011;51027;42.162;24.754;2023-04-24T08:32:32;18.30;;;7.80;;
64615;SDS011;51027;42.162;24.754;2023-04-24T08:34:58;21.52;;;8.90;;
64615;SDS011;51027;42.162;24.754;2023-04-24T08:37:26;20.13;;;9.13;;
64615;SDS011;51027;42.162;24.754;2023-04-24T08:39:52;17.55;;;7.95;;
64615;SDS011;51027;42.162;24.754;2023-04-24T08:42:18;17.63;;;8.63;;
64615;SDS011;51027;42.162;24.754;2023-04-24T08:44:45;20.00;;;8.68;;
64615;SDS011;51027;42.162;24.754;2023-04-24T08:47:11;20.05;;;9.68;;
64615;SDS011;51027;42.162;24.754;2023-04-24T08:49:37;19.38;;;8.65;;
64615;SDS011;51027;42.162;24.754;2023-04-24T08:52:04;19.05;;;7.95;;
64615;SDS011;51027;42.162;24.754;2023-04-24T08:54:31;19.73;;;9.18;;
64615;SDS011;51027;42.162;24.754;2023-04-24T08:57:00;19.85;;;9.05;;
64615;SDS011;51027;42.162;24.754;2023-04-24T08:59:26;20.35;;;9.05;;
64615;SDS011;51027;42.162;24.754;2023-04-24T09:01:52;18.77;;;9.65;;
64615;SDS011;51027;42.162;24.754;2023-04-24T09:04:20;18.38;;;8.95;;
64615;SDS011;51027;42.162;24.754;2023-04-24T09:06:47;17.75;;;7.90;;
64615;SDS011;51027;42.162;24.754;2023-04-24T09:09:14;17.55;;;7.93;;
64615;SDS011;51027;42.162;24.754;2023-04-24T09:11:41;17.63;;;7.93;;
64615;SDS011;51027;42.162;24.754;2023-04-24T09:14:07;19.63;;;7.68;;
64615;SDS011;51027;42.162;24.754;2023-04-24T09:16:34;18.27;;;7.95;;
64615;SDS011;51027;42.162;24.754;2023-04-24T09:19:01;20.17;;;9.25;;
64615;SDS011;51027;42.162;24.754;2023-04-24T09:21:31;18.65;;;8.90;;
64615;SDS011;51027;42.162;24.754;2023-04-24T09:23:58;18.65;;;8.57;;
64615;SDS011;51027;42.162;24.754;2023-04-24T09:26:29;20.05;;;9.35;;
64615;SDS011;51027;42.162;24.754;2023-04-24T09:28:56;19.05;;;8.27;;
64615;SDS011;51027;42.162;24.754;2023-04-24T09:31:22;19.98;;;9.25;;
64615;SDS011;51027;42.162;24.754;2023-04-24T09:33:54;21.98;;;8.40;;
64615;SDS011;51027;42.162;24.754;2023-04-24T09:36:28;17.55;;;7.95;;
64615;SDS011;51027;42.162;24.754;2023-04-24T09:39:00;18.27;;;7.43;;
64615;SDS011;51027;42.162;24.754;2023-04-24T09:41:29;18.77;;;8.60;;
64615;SDS011;51027;42.162;24.754;2023-04-24T09:43:55;17.40;;;8.02;;
64615;SDS011;51027;42.162;24.754;2023-04-24T09:46:28;17.23;;;7.70;;
64615;SDS011;51027;42.162;24.754;2023-04-24T09:48:55;19.95;;;7.70;;
64615;SDS011;51027;42.162;24.754;2023-04-24T09:51:32;19.05;;;8.10;;
64615;SDS011;51027;42.162;24.754;2023-04-24T09:53:59;16.20;;;7.32;;
64615;SDS011;51027;42.162;24.754;2023-04-24T09:56:25;17.77;;;7.50;;
64615;SDS011;51027;42.162;24.754;2023-04-24T09:58:51;17.10;;;7.28;;
64615;SDS011;51027;42.162;24.754;2023-04-24T10:01:17;15.85;;;7.00;;
64615;SDS011;51027;42.162;24.754;2023-04-24T10:03:55;20.00;;;8.17;;
64615;SDS011;51027;42.162;24.754;2023-04-24T10:06:20;18.23;;;7.78;;
64615;SDS011;51027;42.162;24.754;2023-04-24T10:08:46;17.35;;;7.03;;
64615;SDS011;51027;42.162;24.754;2023-04-24T10:11:15;16.30;;;6.72;;
64615;SDS011;51027;42.162;24.754;2023-04-24T10:13:41;16.58;;;6.50;;
64615;SDS011;51027;42.162;24.754;2023-04-24T10:16:07;20.65;;;8.45;;
64615;SDS011;51027;42.162;24.754;2023-04-24T10:18:32;19.35;;;8.40;;
64615;SDS011;51027;42.162;24.754;2023-04-24T10:20:59;17.92;;;8.50;;
64615;SDS011;51027;42.162;24.754;2023-04-24T10:23:25;17.38;;;8.63;;
64615;SDS011;51027;42.162;24.754;2023-04-24T10:25:50;19.50;;;8.82;;
64615;SDS011;51027;42.162;24.754;2023-04-24T10:28:17;19.25;;;10.27;;
64615;SDS011;51027;42.162;24.754;2023-04-24T10:30:44;19.02;;;9.88;;
64615;SDS011;51027;42.162;24.754;2023-04-24T10:33:10;19.73;;;9.45;;
64615;SDS011;51027;42.162;24.754;2023-04-24T10:35:40;17.80;;;8.90;;
64615;SDS011;51027;42.162;24.754;2023-04-24T10:38:13;17.67;;;9.20;;
64615;SDS011;51027;42.162;24.754;2023-04-24T10:40:41;19.25;;;8.93;;
64615;SDS011;51027;42.162;24.754;2023-04-24T10:43:07;21.30;;;8.82;;
64615;SDS011;51027;42.162;24.754;2023-04-24T10:45:36;21.33;;;8.55;;
64615;SDS011;51027;42.162;24.754;2023-04-24T10:48:05;17.05;;;7.75;;
64615;SDS011;51027;42.162;24.754;2023-04-24T10:50:53;17.15;;;8.20;;
64615;SDS011;51027;42.162;24.754;2023-04-24T10:53:19;17.98;;;7.53;;
64615;SDS011;51027;42.162;24.754;2023-04-24T10:55:49;16.65;;;7.20;;
64615;SDS011;51027;42.162;24.754;2023-04-24T10:58:16;16.70;;;7.60;;
64615;SDS011;51027;42.162;24.754;2023-04-24T11:00:55;16.90;;;6.95;;
64615;SDS011;51027;42.162;24.754;2023-04-24T11:03:32;16.67;;;8.27;;
64615;SDS011;51027;42.162;24.754;2023-04-24T11:06:03;19.77;;;8.65;;
64615;SDS011;51027;42.162;24.754;2023-04-24T11:08:32;18.13;;;8.05;;
64615;SDS011;51027;42.162;24.754;2023-04-24T11:11:18;17.33;;;7.10;;
64615;SDS011;51027;42.162;24.754;2023-04-24T11:19:26;16.17;;;7.15;;
64615;SDS011;51027;42.162;24.754;2023-04-24T11:22:00;16.88;;;7.13;;
64615;SDS011;51027;42.162;24.754;2023-04-24T11:29:38;18.83;;;8.77;;
64615;SDS011;51027;42.162;24.754;2023-04-24T11:32:15;17.85;;;8.77;;
64615;SDS011;51027;42.162;24.754;2023-04-24T11:35:26;17.25;;;8.05;;
64615;SDS011;51027;42.162;24.754;2023-04-24T11:37:52;17.00;;;7.90;;
64615;SDS011;51027;42.162;24.754;2023-04-24T11:40:19;16.60;;;7.78;;
64615;SDS011;51027;42.162;24.754;2023-04-24T11:42:47;18.20;;;8.15;;
64615;SDS011;51027;42.162;24.754;2023-04-24T11:45:14;15.52;;;7.28;;
64615;SDS011;51027;42.162;24.754;2023-04-24T11:47:40;17.33;;;7.03;;
64615;SDS011;51027;42.162;24.754;2023-04-24T11:50:07;15.95;;;6.50;;
64615;SDS011;51027;42.162;24.754;2023-04-24T11:52:38;15.30;;;6.20;;
64615;SDS011;51027;42.162;24.754;2023-04-24T11:55:06;16.15;;;6.40;;
64615;SDS011;51027;42.162;24.754;2023-04-24T11:57:48;14.60;;;6.70;;
64615;SDS011;51027;42.162;24.754;2023-04-24T12:00:18;14.27;;;6.28;;
64615;SDS011;51027;42.162;24.754;2023-04-24T12:03:06;14.65;;;6.60;;
64615;SDS011;51027;42.162;24.754;2023-04-24T12:05:36;15.52;;;6.32;;
64615;SDS011;51027;42.162;24.754;2023-04-24T12:08:02;15.48;;;6.28;;
64615;SDS011;51027;42.162;24.754;2023-04-24T12:10:28;15.55;;;6.53;;
64615;SDS011;51027;42.162;24.754;2023-04-24T12:12:56;14.52;;;6.97;;
64615;SDS011;51027;42.162;24.754;2023-04-24T12:15:22;14.48;;;6.35;;
64615;SDS011;51027;42.162;24.754;2023-04-24T12:17:48;14.82;;;6.97;;
64615;SDS011;51027;42.162;24.754;2023-04-24T12:20:16;14.60;;;6.28;;
64615;SDS011;51027;42.162;24.754;2023-04-24T12:22:53;14.55;;;6.15;;
64615;SDS011;51027;42.162;24.754;2023-04-24T12:25:20;14.27;;;6.63;;
64615;SDS011;51027;42.162;24.754;2023-04-24T12:27:52;15.98;;;6.20;;
64615;SDS011;51027;42.162;24.754;2023-04-24T12:30:19;14.38;;;6.07;;
64615;SDS011;51027;42.162;24.754;2023-04-24T12:32:46;18.08;;;6.57;;
64615;SDS011;51027;42.162;24.754;2023-04-24T12:35:18;15.48;;;6.20;;
64615;SDS011;51027;42.162;24.754;2023-04-24T12:37:45;15.13;;;6.97;;
64615;SDS011;51027;42.162;24.754;2023-04-24T12:40:12;17.23;;;7.13;;
64615;SDS011;51027;42.162;24.754;2023-04-24T12:45:14;14.05;;;5.75;;
64615;SDS011;51027;42.162;24.754;2023-04-24T12:47:41;14.70;;;6.20;;
64615;SDS011;51027;42.162;24.754;2023-04-24T12:50:08;14.90;;;6.20;;
64615;SDS011;51027;42.162;24.754;2023-04-24T12:52:34;17.88;;;5.80;;
64615;SDS011;51027;42.162;24.754;2023-04-24T12:55:00;15.30;;;6.10;;
64615;SDS011;51027;42.162;24.754;2023-04-24T12:57:27;16.70;;;6.57;;
64615;SDS011;51027;42.162;24.754;2023-04-24T12:59:54;18.65;;;6.43;;
64615;SDS011;51027;42.162;24.754;2023-04-24T13:02:27;15.35;;;5.90;;
64615;SDS011;51027;42.162;24.754;2023-04-24T13:04:56;16.42;;;7.18;;
64615;SDS011;51027;42.162;24.754;2023-04-24T13:07:22;16.40;;;6.97;;
64615;SDS011;51027;42.162;24.754;2023-04-24T13:09:48;17.45;;;6.75;;
64615;SDS011;51027;42.162;24.754;2023-04-24T13:12:14;14.43;;;6.38;;
64615;SDS011;51027;42.162;24.754;2023-04-24T13:14:40;14.18;;;6.07;;
64615;SDS011;51027;42.162;24.754;2023-04-24T13:17:06;15.18;;;5.88;;
64615;SDS011;51027;42.162;24.754;2023-04-24T13:19:39;13.73;;;6.18;;
64615;SDS011;51027;42.162;24.754;2023-04-24T13:22:06;15.68;;;6.45;;
64615;SDS011;51027;42.162;24.754;2023-04-24T13:24:33;16.88;;;6.93;;
64615;SDS011;51027;42.162;24.754;2023-04-24T13:26:59;15.27;;;5.78;;
64615;SDS011;51027;42.162;24.754;2023-04-24T13:29:25;14.25;;;5.90;;
64615;SDS011;51027;42.162;24.754;2023-04-24T13:31:52;15.38;;;6.18;;
64615;SDS011;51027;42.162;24.754;2023-04-24T13:34:24;16.90;;;6.38;;
64615;SDS011;51027;42.162;24.754;2023-04-24T13:36:50;14.05;;;6.28;;
64615;SDS011;51027;42.162;24.754;2023-04-24T13:39:17;14.90;;;6.13;;
64615;SDS011;51027;42.162;24.754;2023-04-24T13:41:43;15.55;;;6.15;;
64615;SDS011;51027;42.162;24.754;2023-04-24T13:44:08;13.95;;;5.70;;
64615;SDS011;51027;42.162;24.754;2023-04-24T13:46:34;13.50;;;6.25;;
64615;SDS011;51027;42.162;24.754;2023-04-24T13:49:01;15.45;;;6.07;;
64615;SDS011;51027;42.162;24.754;2023-04-24T13:51:28;14.23;;;5.78;;
64615;SDS011;51027;42.162;24.754;2023-04-24T13:53:54;14.50;;;6.15;;
64615;SDS011;51027;42.162;24.754;2023-04-24T13:56:20;13.95;;;6.03;;
64615;SDS011;51027;42.162;24.754;2023-04-24T13:58:47;15.98;;;5.82;;
64615;SDS011;51027;42.162;24.754;2023-04-24T14:01:12;17.00;;;6.10;;
64615;SDS011;51027;42.162;24.754;2023-04-24T14:03:38;16.90;;;6.45;;
64615;SDS011;51027;42.162;24.754;2023-04-24T14:06:04;15.38;;;5.68;;
64615;SDS011;51027;42.162;24.754;2023-04-24T14:08:31;15.32;;;6.22;;
64615;SDS011;51027;42.162;24.754;2023-04-24T14:10:56;14.82;;;5.80;;
64615;SDS011;51027;42.162;24.754;2023-04-24T14:13:22;15.10;;;5.95;;
64615;SDS011;51027;42.162;24.754;2023-04-24T14:15:48;14.45;;;5.68;;
64615;SDS011;51027;42.162;24.754;2023-04-24T14:18:13;15.25;;;6.07;;
64615;SDS011;51027;42.162;24.754;2023-04-24T14:20:39;15.73;;;6.20;;
64615;SDS011;51027;42.162;24.754;2023-04-24T14:23:05;13.48;;;5.47;;
64615;SDS011;51027;42.162;24.754;2023-04-24T14:25:30;13.38;;;5.65;;
64615;SDS011;51027;42.162;24.754;2023-04-24T14:27:56;14.48;;;5.88;;
64615;SDS011;51027;42.162;24.754;2023-04-24T14:30:21;13.63;;;6.00;;
64615;SDS011;51027;42.162;24.754;2023-04-24T14:32:47;14.85;;;6.15;;